createdAt,value
2022-12-18T00:05:57.743Z,14.33
2022-12-18T00:18:28.758Z,13.23
2022-12-18T00:24:34.243Z,14.07
2022-12-18T00:30:40.399Z,14.53
2022-12-18T00:36:52.257Z,15.40
2022-12-18T00:43:02.590Z,13.97
2022-12-18T00:49:05.202Z,14.63
2022-12-18T00:55:10.668Z,15.20
2022-12-18T01:01:15.258Z,16.23
2022-12-18T01:07:31.303Z,16.10
2022-12-18T01:13:37.439Z,15.17
2022-12-18T01:19:42.615Z,14.67
2022-12-18T01:25:48.127Z,15.53
2022-12-18T01:31:58.999Z,13.83
2022-12-18T01:38:02.102Z,15.83
2022-12-18T01:44:46.864Z,15.43
2022-12-18T01:50:51.181Z,13.40
2022-12-18T01:57:06.692Z,16.30
2022-12-18T02:03:16.151Z,16.63
2022-12-18T02:09:32.737Z,16.67
2022-12-18T02:15:50.622Z,16.93
2022-12-18T02:21:55.739Z,16.67
2022-12-18T02:28:09.497Z,18.13
2022-12-18T02:34:14.795Z,18.70
2022-12-18T02:40:19.233Z,18.70
2022-12-18T02:46:33.959Z,17.90
2022-12-18T02:53:00.308Z,18.63
2022-12-18T02:59:09.791Z,18.80
2022-12-18T03:05:18.271Z,17.60
2022-12-18T03:11:40.822Z,19.00
2022-12-18T03:17:51.320Z,19.00
2022-12-18T03:23:56.781Z,18.77
2022-12-18T03:30:14.274Z,16.80
2022-12-18T03:36:20.743Z,17.87
2022-12-18T03:42:31.251Z,18.30
2022-12-18T03:48:43.747Z,18.83
2022-12-18T03:54:48.219Z,19.23
2022-12-18T04:01:02.748Z,18.43
2022-12-18T04:07:07.246Z,19.43
2022-12-18T04:13:12.681Z,17.70
2022-12-18T04:19:15.109Z,17.30
2022-12-18T04:25:20.572Z,17.67
2022-12-18T04:31:24.103Z,17.20
2022-12-18T04:37:26.526Z,15.60
2022-12-18T04:43:29.028Z,14.97
2022-12-18T04:49:31.480Z,16.70
2022-12-18T04:55:34.946Z,15.77
2022-12-18T05:01:37.519Z,13.63
2022-12-18T05:07:39.872Z,14.17
2022-12-18T05:13:48.327Z,14.20
2022-12-18T05:19:50.186Z,15.10
2022-12-18T05:26:14.625Z,14.53
2022-12-18T05:32:18.209Z,14.13
2022-12-18T05:38:24.249Z,14.13
2022-12-18T05:44:26.742Z,14.47
2022-12-18T05:50:29.192Z,13.77
2022-12-18T05:56:31.686Z,15.73
2022-12-18T06:02:36.655Z,18.00
2022-12-18T06:08:45.873Z,19.77
2022-12-18T06:14:51.235Z,17.37
2022-12-18T06:21:01.634Z,19.23
2022-12-18T06:27:06.243Z,18.73
2022-12-18T06:33:11.565Z,18.07
2022-12-18T06:39:14.038Z,15.53
2022-12-18T06:45:17.525Z,16.50
2022-12-18T06:51:25.996Z,16.27
2022-12-18T06:57:30.413Z,15.40
2022-12-18T07:03:35.962Z,15.53
2022-12-18T07:09:40.423Z,15.07
2022-12-18T07:15:44.628Z,14.50
2022-12-18T07:28:19.988Z,15.17
2022-12-18T07:34:27.688Z,13.87
2022-12-18T07:40:31.400Z,14.43
2022-12-18T07:46:34.466Z,15.20
2022-12-18T07:52:41.847Z,17.93
2022-12-18T07:58:55.387Z,19.20
2022-12-18T08:05:00.334Z,20.67
2022-12-18T08:11:07.392Z,21.23
2022-12-18T08:17:09.835Z,19.07
2022-12-18T08:23:12.292Z,19.63
2022-12-18T08:29:21.353Z,19.33
2022-12-18T08:35:25.478Z,17.67
2022-12-18T08:41:41.016Z,15.67
2022-12-18T08:47:45.159Z,20.03
2022-12-18T08:53:57.475Z,20.37
2022-12-18T09:00:14.198Z,18.20
2022-12-18T09:06:21.824Z,17.70
2022-12-18T09:12:29.251Z,19.33
2022-12-18T09:18:51.331Z,16.57
2022-12-18T09:25:06.372Z,14.87
2022-12-18T09:31:15.798Z,13.47
2022-12-18T09:38:51.885Z,15.37
2022-12-18T09:45:55.244Z,17.20
2022-12-18T09:51:40.748Z,16.37
2022-12-18T09:57:51.260Z,15.90
2022-12-18T10:03:57.348Z,16.40
2022-12-18T10:10:12.274Z,16.57
2022-12-18T10:16:21.787Z,14.53
2022-12-18T10:22:41.293Z,15.23
2022-12-18T10:28:44.890Z,15.30
2022-12-18T10:34:59.831Z,14.70
2022-12-18T10:41:24.888Z,14.97
2022-12-18T10:47:30.598Z,16.93
2022-12-18T10:53:36.418Z,15.60
2022-12-18T10:59:59.269Z,15.40
2022-12-18T11:06:10.785Z,15.27
2022-12-18T11:12:25.297Z,17.00
2022-12-18T11:18:40.113Z,14.03
2022-12-18T11:31:32.495Z,15.63
2022-12-18T11:37:40.303Z,15.23
2022-12-18T11:43:54.870Z,14.40
2022-12-18T11:50:08.870Z,15.97
2022-12-18T11:56:34.050Z,13.40
2022-12-18T12:03:10.625Z,13.87
2022-12-18T12:09:55.244Z,14.10
2022-12-18T12:16:05.784Z,13.60
2022-12-18T12:23:07.233Z,15.47
2022-12-18T12:29:45.015Z,14.53
2022-12-18T12:36:02.611Z,15.20
2022-12-18T12:42:40.439Z,14.80
2022-12-18T12:48:57.702Z,14.97
2022-12-18T12:55:02.151Z,15.70
2022-12-18T13:01:47.099Z,15.90
2022-12-18T13:08:09.840Z,15.63
2022-12-18T13:14:35.805Z,15.20
2022-12-18T13:20:53.621Z,14.37
2022-12-18T13:27:06.301Z,16.20
2022-12-18T13:33:18.378Z,15.33
2022-12-18T13:39:29.980Z,16.93
2022-12-18T13:45:44.710Z,15.67
2022-12-18T13:51:52.869Z,12.50
2022-12-18T13:58:06.391Z,13.27
2022-12-18T14:04:17.246Z,12.03
2022-12-18T14:10:45.583Z,11.77
2022-12-18T14:16:45.001Z,12.87
2022-12-18T14:22:50.376Z,10.63
2022-12-18T14:28:52.868Z,11.13
2022-12-18T14:34:56.324Z,10.77
2022-12-18T14:41:02.803Z,10.50
2022-12-18T14:47:05.278Z,9.63
2022-12-18T14:53:10.720Z,9.27
2022-12-18T14:59:23.964Z,11.30
2022-12-18T15:05:33.703Z,11.30
2022-12-18T15:11:42.197Z,11.63
2022-12-18T15:17:44.633Z,11.60
2022-12-18T15:23:53.119Z,11.63
2022-12-18T15:30:25.717Z,12.10
2022-12-18T15:36:32.560Z,10.83
2022-12-18T15:42:53.684Z,12.10
2022-12-18T15:49:02.534Z,11.47
2022-12-18T15:55:25.688Z,11.00
2022-12-18T16:01:39.577Z,11.13
2022-12-18T16:07:59.591Z,9.43
2022-12-18T16:14:02.237Z,11.73
2022-12-18T16:20:04.728Z,11.17
2022-12-18T16:26:16.283Z,12.27
2022-12-18T16:32:21.652Z,12.30
2022-12-18T16:38:26.000Z,11.03
2022-12-18T16:44:32.221Z,12.57
2022-12-18T16:50:39.013Z,12.57
2022-12-18T16:56:43.590Z,13.17
2022-12-18T17:02:52.136Z,12.83
2022-12-18T17:09:02.560Z,14.90
2022-12-18T17:15:07.418Z,15.03
2022-12-18T17:21:11.554Z,15.97
2022-12-18T17:27:18.999Z,16.10
2022-12-18T17:33:30.569Z,15.93
2022-12-18T17:39:59.558Z,15.40
2022-12-18T17:46:06.588Z,14.87
2022-12-18T17:52:15.997Z,15.00
2022-12-18T17:58:21.514Z,15.23
2022-12-18T18:04:23.994Z,16.33
2022-12-18T18:10:26.429Z,15.60
2022-12-18T18:16:51.040Z,13.87
2022-12-18T18:23:07.837Z,16.07
2022-12-18T18:29:26.953Z,15.80
2022-12-18T18:42:03.338Z,14.70
2022-12-18T18:48:10.075Z,15.37
2022-12-18T18:54:20.890Z,13.93
2022-12-18T19:00:27.763Z,18.77
2022-12-18T19:06:42.099Z,16.43
2022-12-18T19:13:05.592Z,16.93
2022-12-18T19:19:18.091Z,13.70
2022-12-18T19:25:28.158Z,13.23
2022-12-18T19:31:50.244Z,11.77
2022-12-18T19:37:57.681Z,12.53
2022-12-18T19:44:20.305Z,13.23
2022-12-18T19:50:22.658Z,13.63
2022-12-18T19:56:27.144Z,12.97
2022-12-18T20:03:02.440Z,11.03
2022-12-18T20:09:15.710Z,10.90
2022-12-18T20:15:46.653Z,10.40
2022-12-18T20:21:56.299Z,10.67
2022-12-18T20:28:10.597Z,10.50
2022-12-18T20:34:13.361Z,10.23
2022-12-18T20:40:33.273Z,9.77
2022-12-18T20:47:59.786Z,10.27
2022-12-18T20:53:30.175Z,9.43
2022-12-18T20:59:37.081Z,13.33
2022-12-18T21:05:41.964Z,10.85
2022-12-18T21:12:17.584Z,10.60
2022-12-18T21:18:20.121Z,11.10
2022-12-18T21:24:37.850Z,10.43
2022-12-18T21:30:59.081Z,10.90
2022-12-18T21:37:08.404Z,10.67
2022-12-18T21:43:29.124Z,11.50
2022-12-18T21:49:40.279Z,10.00
2022-12-18T21:55:48.119Z,12.23
2022-12-18T22:02:01.730Z,10.73
2022-12-18T22:08:16.366Z,11.53
2022-12-18T22:14:23.776Z,10.23
2022-12-18T22:20:34.065Z,10.80
2022-12-18T22:26:45.245Z,10.47
2022-12-18T22:32:59.009Z,10.70
2022-12-18T22:39:26.747Z,10.63
2022-12-18T22:46:03.082Z,11.73
2022-12-18T22:52:10.739Z,10.87
2022-12-18T22:58:23.628Z,10.53
2022-12-18T23:04:49.064Z,12.83
2022-12-18T23:11:04.255Z,11.53
2022-12-18T23:17:14.448Z,11.03
2022-12-18T23:30:12.207Z,10.67
2022-12-18T23:36:24.480Z,10.57
2022-12-18T23:42:58.002Z,10.47
2022-12-18T23:49:06.503Z,10.77
2022-12-18T23:55:15.942Z,11.70
